sensor_id;sensor_type;location;lat;lon;timestamp;P1;durP1;ratioP1;P2;durP2;ratioP2
56581;SDS011;42463;52.214;21.238;2022-08-01T00:01:38;8.10;;;4.00;;
56581;SDS011;42463;52.214;21.238;2022-08-01T00:04:01;6.90;;;4.00;;
56581;SDS011;42463;52.214;21.238;2022-08-01T00:06:24;5.60;;;3.90;;
56581;SDS011;42463;52.214;21.238;2022-08-01T00:08:46;5.70;;;4.60;;
56581;SDS011;42463;52.214;21.238;2022-08-01T00:11:09;6.20;;;4.30;;
56581;SDS011;42463;52.214;21.238;2022-08-01T00:13:31;5.90;;;4.00;;
56581;SDS011;42463;52.214;21.238;2022-08-01T00:15:54;7.10;;;4.30;;
56581;SDS011;42463;52.214;21.238;2022-08-01T00:18:17;5.60;;;4.30;;
56581;SDS011;42463;52.214;21.238;2022-08-01T00:20:39;8.00;;;4.20;;
56581;SDS011;42463;52.214;21.238;2022-08-01T00:23:03;7.90;;;4.20;;
56581;SDS011;42463;52.214;21.238;2022-08-01T00:25:26;7.70;;;4.40;;
56581;SDS011;42463;52.214;21.238;2022-08-01T00:27:49;6.30;;;4.30;;
56581;SDS011;42463;52.214;21.238;2022-08-01T00:30:12;5.90;;;4.30;;
56581;SDS011;42463;52.214;21.238;2022-08-01T00:32:35;8.60;;;4.30;;
56581;SDS011;42463;52.214;21.238;2022-08-01T00:34:58;8.90;;;4.80;;
56581;SDS011;42463;52.214;21.238;2022-08-01T00:37:20;5.10;;;4.60;;
56581;SDS011;42463;52.214;21.238;2022-08-01T00:39:43;5.20;;;4.20;;
56581;SDS011;42463;52.214;21.238;2022-08-01T00:42:07;9.40;;;4.70;;
56581;SDS011;42463;52.214;21.238;2022-08-01T00:44:31;5.60;;;4.30;;
56581;SDS011;42463;52.214;21.238;2022-08-01T00:46:55;6.10;;;4.20;;
56581;SDS011;42463;52.214;21.238;2022-08-01T00:49:17;4.90;;;4.10;;
56581;SDS011;42463;52.214;21.238;2022-08-01T00:51:40;6.00;;;4.30;;
56581;SDS011;42463;52.214;21.238;2022-08-01T00:54:03;5.20;;;4.50;;
56581;SDS011;42463;52.214;21.238;2022-08-01T00:56:26;6.60;;;4.10;;
56581;SDS011;42463;52.214;21.238;2022-08-01T00:58:50;5.10;;;3.70;;
56581;SDS011;42463;52.214;21.238;2022-08-01T01:01:47;6.50;;;4.20;;
56581;SDS011;42463;52.214;21.238;2022-08-01T01:04:10;5.60;;;4.10;;
56581;SDS011;42463;52.214;21.238;2022-08-01T01:06:40;7.60;;;4.10;;
56581;SDS011;42463;52.214;21.238;2022-08-01T01:09:21;8.40;;;3.60;;
56581;SDS011;42463;52.214;21.238;2022-08-01T01:12:00;5.40;;;4.30;;
56581;SDS011;42463;52.214;21.238;2022-08-01T01:14:41;7.00;;;4.00;;
56581;SDS011;42463;52.214;21.238;2022-08-01T01:17:08;6.20;;;4.40;;
56581;SDS011;42463;52.214;21.238;2022-08-01T01:19:32;6.70;;;3.80;;
56581;SDS011;42463;52.214;21.238;2022-08-01T01:22:18;6.20;;;4.20;;
56581;SDS011;42463;52.214;21.238;2022-08-01T01:24:51;6.70;;;4.10;;
56581;SDS011;42463;52.214;21.238;2022-08-01T01:27:42;7.00;;;4.30;;
56581;SDS011;42463;52.214;21.238;2022-08-01T01:30:11;5.00;;;3.70;;
56581;SDS011;42463;52.214;21.238;2022-08-01T01:32:37;5.60;;;4.40;;
56581;SDS011;42463;52.214;21.238;2022-08-01T01:35:05;7.30;;;4.10;;
56581;SDS011;42463;52.214;21.238;2022-08-01T01:37:31;8.20;;;3.90;;
56581;SDS011;42463;52.214;21.238;2022-08-01T01:39:55;6.50;;;4.40;;
56581;SDS011;42463;52.214;21.238;2022-08-01T01:42:19;7.10;;;4.20;;
56581;SDS011;42463;52.214;21.238;2022-08-01T01:44:46;8.20;;;4.20;;
56581;SDS011;42463;52.214;21.238;2022-08-01T01:47:12;9.30;;;4.10;;
56581;SDS011;42463;52.214;21.238;2022-08-01T01:49:35;7.70;;;3.90;;
56581;SDS011;42463;52.214;21.238;2022-08-01T01:52:01;6.20;;;3.90;;
56581;SDS011;42463;52.214;21.238;2022-08-01T01:54:27;7.40;;;4.30;;
56581;SDS011;42463;52.214;21.238;2022-08-01T01:56:53;9.20;;;4.40;;
56581;SDS011;42463;52.214;21.238;2022-08-01T01:59:21;6.20;;;3.90;;
56581;SDS011;42463;52.214;21.238;2022-08-01T02:01:48;5.30;;;3.80;;
56581;SDS011;42463;52.214;21.238;2022-08-01T02:04:16;8.30;;;3.80;;
56581;SDS011;42463;52.214;21.238;2022-08-01T02:06:41;5.30;;;3.80;;
56581;SDS011;42463;52.214;21.238;2022-08-01T02:09:05;5.00;;;3.60;;
56581;SDS011;42463;52.214;21.238;2022-08-01T02:11:30;9.20;;;4.20;;
56581;SDS011;42463;52.214;21.238;2022-08-01T02:13:55;6.90;;;3.80;;
56581;SDS011;42463;52.214;21.238;2022-08-01T02:16:21;5.80;;;3.90;;
56581;SDS011;42463;52.214;21.238;2022-08-01T02:18:46;5.30;;;4.00;;
56581;SDS011;42463;52.214;21.238;2022-08-01T02:21:11;5.10;;;3.70;;
56581;SDS011;42463;52.214;21.238;2022-08-01T02:23:38;8.90;;;4.20;;
56581;SDS011;42463;52.214;21.238;2022-08-01T02:26:02;6.10;;;3.80;;
56581;SDS011;42463;52.214;21.238;2022-08-01T02:28:32;6.20;;;3.90;;
56581;SDS011;42463;52.214;21.238;2022-08-01T02:31:00;7.30;;;4.00;;
56581;SDS011;42463;52.214;21.238;2022-08-01T02:33:34;12.50;;;4.40;;
56581;SDS011;42463;52.214;21.238;2022-08-01T02:35:59;7.30;;;4.40;;
56581;SDS011;42463;52.214;21.238;2022-08-01T02:38:25;7.00;;;4.30;;
56581;SDS011;42463;52.214;21.238;2022-08-01T02:40:54;8.20;;;4.60;;
56581;SDS011;42463;52.214;21.238;2022-08-01T02:43:21;8.70;;;4.50;;
56581;SDS011;42463;52.214;21.238;2022-08-01T02:45:51;5.20;;;4.10;;
56581;SDS011;42463;52.214;21.238;2022-08-01T02:48:15;8.10;;;4.30;;
56581;SDS011;42463;52.214;21.238;2022-08-01T02:50:43;10.90;;;4.30;;
56581;SDS011;42463;52.214;21.238;2022-08-01T02:53:08;8.20;;;4.70;;
56581;SDS011;42463;52.214;21.238;2022-08-01T02:55:35;8.00;;;4.60;;
56581;SDS011;42463;52.214;21.238;2022-08-01T02:58:00;9.50;;;5.00;;
56581;SDS011;42463;52.214;21.238;2022-08-01T03:00:24;9.00;;;4.40;;
56581;SDS011;42463;52.214;21.238;2022-08-01T03:02:49;7.10;;;4.30;;
56581;SDS011;42463;52.214;21.238;2022-08-01T03:05:15;6.10;;;4.30;;
56581;SDS011;42463;52.214;21.238;2022-08-01T03:07:40;10.40;;;4.40;;
56581;SDS011;42463;52.214;21.238;2022-08-01T03:12:27;6.40;;;4.90;;
56581;SDS011;42463;52.214;21.238;2022-08-01T03:14:54;7.80;;;4.70;;
56581;SDS011;42463;52.214;21.238;2022-08-01T03:17:20;8.10;;;4.90;;
56581;SDS011;42463;52.214;21.238;2022-08-01T03:19:46;9.50;;;4.60;;
56581;SDS011;42463;52.214;21.238;2022-08-01T03:22:12;9.90;;;4.50;;
56581;SDS011;42463;52.214;21.238;2022-08-01T03:24:37;7.70;;;4.40;;
56581;SDS011;42463;52.214;21.238;2022-08-01T03:27:02;9.90;;;4.80;;
56581;SDS011;42463;52.214;21.238;2022-08-01T03:31:49;9.80;;;5.60;;
56581;SDS011;42463;52.214;21.238;2022-08-01T03:34:13;7.90;;;4.60;;
56581;SDS011;42463;52.214;21.238;2022-08-01T03:36:47;9.60;;;4.60;;
56581;SDS011;42463;52.214;21.238;2022-08-01T03:39:14;7.60;;;4.30;;
56581;SDS011;42463;52.214;21.238;2022-08-01T03:41:41;8.20;;;4.50;;
56581;SDS011;42463;52.214;21.238;2022-08-01T03:44:13;7.20;;;4.30;;
56581;SDS011;42463;52.214;21.238;2022-08-01T03:46:40;6.80;;;4.30;;
56581;SDS011;42463;52.214;21.238;2022-08-01T03:49:08;6.40;;;4.60;;
56581;SDS011;42463;52.214;21.238;2022-08-01T03:51:36;5.90;;;4.30;;
56581;SDS011;42463;52.214;21.238;2022-08-01T03:54:00;8.40;;;4.50;;
56581;SDS011;42463;52.214;21.238;2022-08-01T03:56:25;8.00;;;4.30;;
56581;SDS011;42463;52.214;21.238;2022-08-01T03:58:53;6.50;;;4.20;;
56581;SDS011;42463;52.214;21.238;2022-08-01T04:01:15;8.70;;;4.70;;
56581;SDS011;42463;52.214;21.238;2022-08-01T04:03:39;10.20;;;4.20;;
56581;SDS011;42463;52.214;21.238;2022-08-01T04:06:05;9.30;;;4.40;;
56581;SDS011;42463;52.214;21.238;2022-08-01T04:08:35;8.30;;;4.30;;
56581;SDS011;42463;52.214;21.238;2022-08-01T04:10:59;9.20;;;4.60;;
56581;SDS011;42463;52.214;21.238;2022-08-01T04:13:21;6.80;;;4.50;;
56581;SDS011;42463;52.214;21.238;2022-08-01T04:15:44;7.10;;;4.30;;
56581;SDS011;42463;52.214;21.238;2022-08-01T04:18:09;8.40;;;4.50;;
56581;SDS011;42463;52.214;21.238;2022-08-01T04:20:36;6.20;;;4.40;;
56581;SDS011;42463;52.214;21.238;2022-08-01T04:23:01;10.70;;;4.40;;
56581;SDS011;42463;52.214;21.238;2022-08-01T04:25:29;9.10;;;4.50;;
56581;SDS011;42463;52.214;21.238;2022-08-01T04:27:56;8.50;;;4.30;;
56581;SDS011;42463;52.214;21.238;2022-08-01T04:30:22;8.20;;;4.80;;
56581;SDS011;42463;52.214;21.238;2022-08-01T04:32:49;9.30;;;4.40;;
56581;SDS011;42463;52.214;21.238;2022-08-01T04:35:16;7.90;;;4.70;;
56581;SDS011;42463;52.214;21.238;2022-08-01T04:37:47;10.00;;;4.40;;
56581;SDS011;42463;52.214;21.238;2022-08-01T04:40:12;7.70;;;4.60;;
56581;SDS011;42463;52.214;21.238;2022-08-01T04:42:38;8.70;;;4.80;;
56581;SDS011;42463;52.214;21.238;2022-08-01T04:45:08;12.50;;;5.20;;
56581;SDS011;42463;52.214;21.238;2022-08-01T04:47:32;12.50;;;5.20;;
56581;SDS011;42463;52.214;21.238;2022-08-01T04:49:56;12.10;;;5.00;;
56581;SDS011;42463;52.214;21.238;2022-08-01T04:52:19;10.10;;;4.60;;
56581;SDS011;42463;52.214;21.238;2022-08-01T04:54:42;14.50;;;5.30;;
56581;SDS011;42463;52.214;21.238;2022-08-01T04:57:05;10.10;;;4.80;;
56581;SDS011;42463;52.214;21.238;2022-08-01T05:02:03;12.80;;;5.00;;
56581;SDS011;42463;52.214;21.238;2022-08-01T05:04:27;9.60;;;4.90;;
56581;SDS011;42463;52.214;21.238;2022-08-01T05:06:50;11.50;;;5.00;;
56581;SDS011;42463;52.214;21.238;2022-08-01T05:09:12;11.50;;;5.00;;
56581;SDS011;42463;52.214;21.238;2022-08-01T05:11:35;10.50;;;4.90;;
56581;SDS011;42463;52.214;21.238;2022-08-01T05:13:58;11.70;;;5.20;;
56581;SDS011;42463;52.214;21.238;2022-08-01T05:16:21;10.00;;;5.10;;
56581;SDS011;42463;52.214;21.238;2022-08-01T05:18:44;10.90;;;4.40;;
56581;SDS011;42463;52.214;21.238;2022-08-01T05:21:06;8.90;;;5.10;;
56581;SDS011;42463;52.214;21.238;2022-08-01T05:23:29;10.70;;;4.40;;
56581;SDS011;42463;52.214;21.238;2022-08-01T05:25:52;11.30;;;5.10;;
56581;SDS011;42463;52.214;21.238;2022-08-01T05:28:15;12.80;;;5.30;;
56581;SDS011;42463;52.214;21.238;2022-08-01T05:30:39;9.60;;;4.70;;
56581;SDS011;42463;52.214;21.238;2022-08-01T05:33:02;8.20;;;4.40;;
56581;SDS011;42463;52.214;21.238;2022-08-01T05:35:25;10.10;;;5.00;;
56581;SDS011;42463;52.214;21.238;2022-08-01T05:37:48;8.20;;;4.40;;
56581;SDS011;42463;52.214;21.238;2022-08-01T05:40:12;6.60;;;4.30;;
56581;SDS011;42463;52.214;21.238;2022-08-01T05:42:35;6.10;;;4.20;;
56581;SDS011;42463;52.214;21.238;2022-08-01T05:44:58;9.90;;;4.60;;
56581;SDS011;42463;52.214;21.238;2022-08-01T05:47:21;7.80;;;4.00;;
56581;SDS011;42463;52.214;21.238;2022-08-01T05:50:19;11.60;;;4.40;;
56581;SDS011;42463;52.214;21.238;2022-08-01T05:52:45;10.00;;;4.50;;
56581;SDS011;42463;52.214;21.238;2022-08-01T05:55:09;9.90;;;5.40;;
56581;SDS011;42463;52.214;21.238;2022-08-01T05:57:32;6.50;;;4.30;;
56581;SDS011;42463;52.214;21.238;2022-08-01T05:59:54;9.80;;;4.50;;
56581;SDS011;42463;52.214;21.238;2022-08-01T06:02:17;10.80;;;4.50;;
56581;SDS011;42463;52.214;21.238;2022-08-01T06:04:40;9.90;;;5.10;;
56581;SDS011;42463;52.214;21.238;2022-08-01T06:07:03;10.40;;;5.40;;
56581;SDS011;42463;52.214;21.238;2022-08-01T06:09:26;10.90;;;5.00;;
56581;SDS011;42463;52.214;21.238;2022-08-01T06:11:48;8.00;;;4.50;;
56581;SDS011;42463;52.214;21.238;2022-08-01T06:14:12;6.90;;;4.40;;
56581;SDS011;42463;52.214;21.238;2022-08-01T06:16:34;6.70;;;4.30;;
56581;SDS011;42463;52.214;21.238;2022-08-01T06:18:57;7.90;;;4.70;;
56581;SDS011;42463;52.214;21.238;2022-08-01T06:21:20;6.90;;;3.90;;
56581;SDS011;42463;52.214;21.238;2022-08-01T06:23:43;6.70;;;3.60;;
56581;SDS011;42463;52.214;21.238;2022-08-01T06:26:06;7.30;;;3.50;;
56581;SDS011;42463;52.214;21.238;2022-08-01T06:28:29;7.30;;;4.00;;
56581;SDS011;42463;52.214;21.238;2022-08-01T06:30:51;6.10;;;3.70;;
56581;SDS011;42463;52.214;21.238;2022-08-01T06:33:14;5.00;;;3.20;;
56581;SDS011;42463;52.214;21.238;2022-08-01T06:35:37;4.90;;;2.90;;
56581;SDS011;42463;52.214;21.238;2022-08-01T06:38:00;8.20;;;3.30;;
56581;SDS011;42463;52.214;21.238;2022-08-01T06:40:24;7.70;;;3.80;;
56581;SDS011;42463;52.214;21.238;2022-08-01T06:42:47;6.00;;;3.50;;
56581;SDS011;42463;52.214;21.238;2022-08-01T06:45:11;6.70;;;3.20;;
56581;SDS011;42463;52.214;21.238;2022-08-01T06:47:35;5.80;;;3.30;;
56581;SDS011;42463;52.214;21.238;2022-08-01T06:52:21;4.50;;;3.50;;
56581;SDS011;42463;52.214;21.238;2022-08-01T06:54:44;3.70;;;2.60;;
56581;SDS011;42463;52.214;21.238;2022-08-01T06:57:07;5.20;;;3.10;;
56581;SDS011;42463;52.214;21.238;2022-08-01T06:59:30;6.20;;;3.10;;
56581;SDS011;42463;52.214;21.238;2022-08-01T07:01:53;3.40;;;2.50;;
56581;SDS011;42463;52.214;21.238;2022-08-01T07:04:16;4.80;;;2.80;;
56581;SDS011;42463;52.214;21.238;2022-08-01T07:06:38;5.80;;;2.60;;
56581;SDS011;42463;52.214;21.238;2022-08-01T07:09:01;5.30;;;3.00;;
56581;SDS011;42463;52.214;21.238;2022-08-01T07:11:24;7.00;;;3.10;;
56581;SDS011;42463;52.214;21.238;2022-08-01T07:13:47;6.10;;;2.90;;
56581;SDS011;42463;52.214;21.238;2022-08-01T07:16:10;5.30;;;2.70;;
56581;SDS011;42463;52.214;21.238;2022-08-01T07:18:33;6.70;;;3.40;;
56581;SDS011;42463;52.214;21.238;2022-08-01T07:20:56;8.60;;;2.90;;
56581;SDS011;42463;52.214;21.238;2022-08-01T07:23:19;5.40;;;3.00;;
56581;SDS011;42463;52.214;21.238;2022-08-01T07:25:41;4.10;;;2.60;;
56581;SDS011;42463;52.214;21.238;2022-08-01T07:28:05;5.00;;;2.80;;
56581;SDS011;42463;52.214;21.238;2022-08-01T07:30:28;4.40;;;2.60;;
56581;SDS011;42463;52.214;21.238;2022-08-01T07:32:50;7.30;;;2.90;;
56581;SDS011;42463;52.214;21.238;2022-08-01T07:35:13;4.60;;;2.40;;
56581;SDS011;42463;52.214;21.238;2022-08-01T07:37:36;3.20;;;2.80;;
56581;SDS011;42463;52.214;21.238;2022-08-01T07:39:58;2.70;;;2.30;;
56581;SDS011;42463;52.214;21.238;2022-08-01T07:42:21;4.10;;;2.30;;
56581;SDS011;42463;52.214;21.238;2022-08-01T07:44:44;3.00;;;1.90;;
56581;SDS011;42463;52.214;21.238;2022-08-01T07:47:06;2.90;;;1.90;;
56581;SDS011;42463;52.214;21.238;2022-08-01T07:49:29;3.90;;;2.00;;
56581;SDS011;42463;52.214;21.238;2022-08-01T07:51:52;3.50;;;2.10;;
56581;SDS011;42463;52.214;21.238;2022-08-01T07:54:15;3.10;;;1.90;;
56581;SDS011;42463;52.214;21.238;2022-08-01T07:56:38;3.60;;;2.10;;
56581;SDS011;42463;52.214;21.238;2022-08-01T07:59:00;4.40;;;2.00;;
56581;SDS011;42463;52.214;21.238;2022-08-01T08:01:23;4.90;;;2.10;;
56581;SDS011;42463;52.214;21.238;2022-08-01T08:03:46;2.80;;;2.00;;
56581;SDS011;42463;52.214;21.238;2022-08-01T08:06:09;4.10;;;2.20;;
56581;SDS011;42463;52.214;21.238;2022-08-01T08:08:32;4.00;;;2.10;;
56581;SDS011;42463;52.214;21.238;2022-08-01T08:13:18;2.60;;;1.80;;
56581;SDS011;42463;52.214;21.238;2022-08-01T08:15:41;4.30;;;1.90;;
56581;SDS011;42463;52.214;21.238;2022-08-01T08:18:05;2.70;;;1.90;;
56581;SDS011;42463;52.214;21.238;2022-08-01T08:20:28;2.50;;;2.20;;
56581;SDS011;42463;52.214;21.238;2022-08-01T08:22:51;2.20;;;2.00;;
56581;SDS011;42463;52.214;21.238;2022-08-01T08:25:13;3.20;;;1.90;;
56581;SDS011;42463;52.214;21.238;2022-08-01T08:27:36;4.60;;;2.30;;
56581;SDS011;42463;52.214;21.238;2022-08-01T08:29:59;4.20;;;2.40;;
56581;SDS011;42463;52.214;21.238;2022-08-01T08:32:22;3.80;;;2.20;;
56581;SDS011;42463;52.214;21.238;2022-08-01T08:34:45;2.90;;;2.00;;
56581;SDS011;42463;52.214;21.238;2022-08-01T08:37:08;2.90;;;2.10;;
56581;SDS011;42463;52.214;21.238;2022-08-01T08:39:31;3.10;;;2.10;;
56581;SDS011;42463;52.214;21.238;2022-08-01T08:41:53;2.80;;;2.00;;
56581;SDS011;42463;52.214;21.238;2022-08-01T08:44:18;4.60;;;1.90;;
56581;SDS011;42463;52.214;21.238;2022-08-01T08:46:44;4.00;;;2.10;;
56581;SDS011;42463;52.214;21.238;2022-08-01T08:49:08;2.80;;;1.90;;
56581;SDS011;42463;52.214;21.238;2022-08-01T08:51:32;5.60;;;2.10;;
56581;SDS011;42463;52.214;21.238;2022-08-01T08:53:59;2.30;;;2.10;;
56581;SDS011;42463;52.214;21.238;2022-08-01T08:56:26;1.80;;;1.70;;
56581;SDS011;42463;52.214;21.238;2022-08-01T08:58:58;2.60;;;2.00;;
56581;SDS011;42463;52.214;21.238;2022-08-01T09:01:21;3.20;;;1.90;;
56581;SDS011;42463;52.214;21.238;2022-08-01T09:03:45;3.60;;;1.90;;
56581;SDS011;42463;52.214;21.238;2022-08-01T09:06:08;4.80;;;2.00;;
56581;SDS011;42463;52.214;21.238;2022-08-01T09:10:54;3.90;;;2.00;;
56581;SDS011;42463;52.214;21.238;2022-08-01T09:13:17;3.10;;;2.20;;
56581;SDS011;42463;52.214;21.238;2022-08-01T09:15:41;3.30;;;2.20;;
56581;SDS011;42463;52.214;21.238;2022-08-01T09:18:05;2.70;;;1.90;;
56581;SDS011;42463;52.214;21.238;2022-08-01T09:20:28;4.50;;;2.20;;
56581;SDS011;42463;52.214;21.238;2022-08-01T09:22:50;3.20;;;2.10;;
56581;SDS011;42463;52.214;21.238;2022-08-01T09:25:13;2.30;;;2.00;;
56581;SDS011;42463;52.214;21.238;2022-08-01T09:27:37;3.30;;;1.90;;
56581;SDS011;42463;52.214;21.238;2022-08-01T09:30:09;3.60;;;2.10;;
56581;SDS011;42463;52.214;21.238;2022-08-01T09:32:35;2.60;;;1.70;;
56581;SDS011;42463;52.214;21.238;2022-08-01T09:34:57;1.80;;;1.60;;
56581;SDS011;42463;52.214;21.238;2022-08-01T09:37:41;3.90;;;1.90;;
56581;SDS011;42463;52.214;21.238;2022-08-01T09:40:06;2.40;;;1.70;;
56581;SDS011;42463;52.214;21.238;2022-08-01T09:42:30;3.10;;;1.80;;
56581;SDS011;42463;52.214;21.238;2022-08-01T09:44:53;3.20;;;1.90;;
56581;SDS011;42463;52.214;21.238;2022-08-01T09:47:15;2.30;;;1.70;;
56581;SDS011;42463;52.214;21.238;2022-08-01T09:49:42;2.90;;;1.60;;
56581;SDS011;42463;52.214;21.238;2022-08-01T09:52:15;2.70;;;1.90;;
56581;SDS011;42463;52.214;21.238;2022-08-01T09:54:38;2.30;;;1.90;;
56581;SDS011;42463;52.214;21.238;2022-08-01T09:57:10;3.50;;;2.00;;
56581;SDS011;42463;52.214;21.238;2022-08-01T10:02:01;3.90;;;1.90;;
56581;SDS011;42463;52.214;21.238;2022-08-01T10:04:25;6.50;;;1.90;;
56581;SDS011;42463;52.214;21.238;2022-08-01T10:06:49;3.60;;;2.10;;
56581;SDS011;42463;52.214;21.238;2022-08-01T10:09:14;9.10;;;2.00;;
56581;SDS011;42463;52.214;21.238;2022-08-01T10:11:48;7.00;;;2.80;;
56581;SDS011;42463;52.214;21.238;2022-08-01T10:14:11;2.40;;;1.90;;
56581;SDS011;42463;52.214;21.238;2022-08-01T10:16:36;3.00;;;1.90;;
56581;SDS011;42463;52.214;21.238;2022-08-01T10:18:59;3.20;;;1.80;;
56581;SDS011;42463;52.214;21.238;2022-08-01T10:21:23;2.80;;;1.80;;
56581;SDS011;42463;52.214;21.238;2022-08-01T10:23:47;2.80;;;1.80;;
56581;SDS011;42463;52.214;21.238;2022-08-01T10:26:11;2.10;;;1.90;;
56581;SDS011;42463;52.214;21.238;2022-08-01T10:28:36;2.30;;;2.10;;
56581;SDS011;42463;52.214;21.238;2022-08-01T10:30:59;3.40;;;1.90;;
56581;SDS011;42463;52.214;21.238;2022-08-01T10:33:23;3.70;;;2.10;;
56581;SDS011;42463;52.214;21.238;2022-08-01T10:35:46;2.80;;;1.90;;
56581;SDS011;42463;52.214;21.238;2022-08-01T10:38:09;5.50;;;2.30;;
56581;SDS011;42463;52.214;21.238;2022-08-01T10:40:32;2.80;;;1.80;;
56581;SDS011;42463;52.214;21.238;2022-08-01T10:42:57;3.70;;;1.90;;
56581;SDS011;42463;52.214;21.238;2022-08-01T10:45:20;3.90;;;1.80;;
56581;SDS011;42463;52.214;21.238;2022-08-01T10:50:17;2.50;;;2.20;;
56581;SDS011;42463;52.214;21.238;2022-08-01T10:53:07;4.10;;;1.90;;
56581;SDS011;42463;52.214;21.238;2022-08-01T10:55:45;3.00;;;1.90;;
56581;SDS011;42463;52.214;21.238;2022-08-01T10:58:08;3.10;;;1.80;;
56581;SDS011;42463;52.214;21.238;2022-08-01T11:00:31;4.00;;;1.90;;
56581;SDS011;42463;52.214;21.238;2022-08-01T11:03:02;4.00;;;2.00;;
56581;SDS011;42463;52.214;21.238;2022-08-01T11:05:25;2.90;;;1.50;;
56581;SDS011;42463;52.214;21.238;2022-08-01T11:07:51;2.20;;;1.80;;
56581;SDS011;42463;52.214;21.238;2022-08-01T11:10:24;2.80;;;1.60;;
56581;SDS011;42463;52.214;21.238;2022-08-01T11:12:56;2.80;;;1.80;;
56581;SDS011;42463;52.214;21.238;2022-08-01T11:15:24;3.00;;;1.90;;
56581;SDS011;42463;52.214;21.238;2022-08-01T11:17:49;2.70;;;1.60;;
56581;SDS011;42463;52.214;21.238;2022-08-01T11:26:08;3.00;;;1.70;;
56581;SDS011;42463;52.214;21.238;2022-08-01T11:31:24;2.70;;;1.80;;
56581;SDS011;42463;52.214;21.238;2022-08-01T11:33:51;2.00;;;1.70;;
56581;SDS011;42463;52.214;21.238;2022-08-01T11:36:20;6.70;;;2.00;;
56581;SDS011;42463;52.214;21.238;2022-08-01T11:38:45;4.10;;;1.60;;
56581;SDS011;42463;52.214;21.238;2022-08-01T11:41:12;3.50;;;1.90;;
56581;SDS011;42463;52.214;21.238;2022-08-01T11:43:41;6.40;;;2.00;;
56581;SDS011;42463;52.214;21.238;2022-08-01T11:46:17;1.80;;;1.60;;
56581;SDS011;42463;52.214;21.238;2022-08-01T11:48:39;3.20;;;1.50;;
56581;SDS011;42463;52.214;21.238;2022-08-01T11:51:02;5.70;;;2.20;;
56581;SDS011;42463;52.214;21.238;2022-08-01T11:53:36;1.90;;;1.70;;
56581;SDS011;42463;52.214;21.238;2022-08-01T11:56:08;5.00;;;1.80;;
56581;SDS011;42463;52.214;21.238;2022-08-01T11:58:32;3.90;;;1.90;;
56581;SDS011;42463;52.214;21.238;2022-08-01T12:00:55;3.10;;;2.30;;
56581;SDS011;42463;52.214;21.238;2022-08-01T12:03:24;2.40;;;2.00;;
56581;SDS011;42463;52.214;21.238;2022-08-01T12:05:48;2.60;;;2.00;;
56581;SDS011;42463;52.214;21.238;2022-08-01T12:08:11;3.10;;;1.90;;
56581;SDS011;42463;52.214;21.238;2022-08-01T12:10:34;3.00;;;2.10;;
56581;SDS011;42463;52.214;21.238;2022-08-01T12:13:01;3.60;;;2.30;;
56581;SDS011;42463;52.214;21.238;2022-08-01T12:15:28;4.10;;;1.90;;
56581;SDS011;42463;52.214;21.238;2022-08-01T12:17:57;2.70;;;1.90;;
56581;SDS011;42463;52.214;21.238;2022-08-01T12:20:22;3.30;;;1.70;;
56581;SDS011;42463;52.214;21.238;2022-08-01T12:22:46;2.50;;;2.10;;
56581;SDS011;42463;52.214;21.238;2022-08-01T12:25:11;3.30;;;2.10;;
56581;SDS011;42463;52.214;21.238;2022-08-01T12:27:35;3.50;;;2.10;;
56581;SDS011;42463;52.214;21.238;2022-08-01T12:30:03;2.40;;;1.90;;
56581;SDS011;42463;52.214;21.238;2022-08-01T12:32:29;2.80;;;2.20;;
56581;SDS011;42463;52.214;21.238;2022-08-01T12:34:54;3.50;;;2.00;;
56581;SDS011;42463;52.214;21.238;2022-08-01T12:37:19;4.60;;;2.50;;
56581;SDS011;42463;52.214;21.238;2022-08-01T12:39:42;3.00;;;2.50;;
56581;SDS011;42463;52.214;21.238;2022-08-01T12:42:07;2.70;;;2.50;;
56581;SDS011;42463;52.214;21.238;2022-08-01T12:44:31;3.40;;;2.50;;
56581;SDS011;42463;52.214;21.238;2022-08-01T12:46:56;3.60;;;2.10;;
56581;SDS011;42463;52.214;21.238;2022-08-01T12:49:19;3.30;;;2.20;;
56581;SDS011;42463;52.214;21.238;2022-08-01T12:51:42;5.00;;;2.50;;
56581;SDS011;42463;52.214;21.238;2022-08-01T12:54:05;4.00;;;2.20;;
56581;SDS011;42463;52.214;21.238;2022-08-01T12:56:34;3.10;;;2.40;;
56581;SDS011;42463;52.214;21.238;2022-08-01T12:58:57;2.70;;;2.10;;
56581;SDS011;42463;52.214;21.238;2022-08-01T13:01:26;6.70;;;2.50;;
56581;SDS011;42463;52.214;21.238;2022-08-01T13:03:58;4.00;;;2.20;;
56581;SDS011;42463;52.214;21.238;2022-08-01T13:06:23;4.90;;;2.40;;
56581;SDS011;42463;52.214;21.238;2022-08-01T13:08:51;3.60;;;2.50;;
56581;SDS011;42463;52.214;21.238;2022-08-01T13:11:15;2.70;;;2.40;;
56581;SDS011;42463;52.214;21.238;2022-08-01T13:13:40;4.20;;;2.40;;
56581;SDS011;42463;52.214;21.238;2022-08-01T13:16:05;5.30;;;2.90;;
56581;SDS011;42463;52.214;21.238;2022-08-01T13:18:31;4.60;;;2.50;;
56581;SDS011;42463;52.214;21.238;2022-08-01T13:21:12;3.50;;;2.50;;
56581;SDS011;42463;52.214;21.238;2022-08-01T13:23:37;3.60;;;2.40;;
56581;SDS011;42463;52.214;21.238;2022-08-01T13:26:00;6.60;;;2.60;;
56581;SDS011;42463;52.214;21.238;2022-08-01T13:28:23;3.30;;;2.60;;
56581;SDS011;42463;52.214;21.238;2022-08-01T13:30:56;3.60;;;2.30;;
56581;SDS011;42463;52.214;21.238;2022-08-01T13:33:21;6.40;;;2.60;;
56581;SDS011;42463;52.214;21.238;2022-08-01T13:35:44;2.70;;;2.40;;
56581;SDS011;42463;52.214;21.238;2022-08-01T13:38:08;3.30;;;2.40;;
56581;SDS011;42463;52.214;21.238;2022-08-01T13:40:31;5.30;;;2.30;;
56581;SDS011;42463;52.214;21.238;2022-08-01T13:42:54;3.30;;;2.50;;
56581;SDS011;42463;52.214;21.238;2022-08-01T13:45:18;4.40;;;2.30;;
56581;SDS011;42463;52.214;21.238;2022-08-01T13:47:41;3.30;;;2.30;;
56581;SDS011;42463;52.214;21.238;2022-08-01T13:52:27;3.90;;;2.50;;
56581;SDS011;42463;52.214;21.238;2022-08-01T13:54:50;3.00;;;2.20;;
56581;SDS011;42463;52.214;21.238;2022-08-01T13:57:13;3.10;;;2.40;;
56581;SDS011;42463;52.214;21.238;2022-08-01T13:59:37;3.70;;;2.50;;
56581;SDS011;42463;52.214;21.238;2022-08-01T14:02:00;4.90;;;2.70;;
56581;SDS011;42463;52.214;21.238;2022-08-01T14:04:22;5.20;;;2.50;;
56581;SDS011;42463;52.214;21.238;2022-08-01T14:06:45;5.00;;;2.60;;
56581;SDS011;42463;52.214;21.238;2022-08-01T14:09:08;3.00;;;2.70;;
56581;SDS011;42463;52.214;21.238;2022-08-01T14:11:31;4.20;;;2.50;;
56581;SDS011;42463;52.214;21.238;2022-08-01T14:13:54;5.60;;;2.60;;
56581;SDS011;42463;52.214;21.238;2022-08-01T14:16:17;3.20;;;2.50;;
56581;SDS011;42463;52.214;21.238;2022-08-01T14:21:03;4.10;;;2.90;;
56581;SDS011;42463;52.214;21.238;2022-08-01T14:23:26;5.50;;;2.70;;
56581;SDS011;42463;52.214;21.238;2022-08-01T14:25:49;3.90;;;2.60;;
56581;SDS011;42463;52.214;21.238;2022-08-01T14:28:12;3.10;;;2.60;;
56581;SDS011;42463;52.214;21.238;2022-08-01T14:30:35;6.70;;;3.50;;
56581;SDS011;42463;52.214;21.238;2022-08-01T14:32:58;3.30;;;2.90;;
56581;SDS011;42463;52.214;21.238;2022-08-01T14:35:21;3.50;;;2.80;;
56581;SDS011;42463;52.214;21.238;2022-08-01T14:37:44;4.30;;;2.80;;
56581;SDS011;42463;52.214;21.238;2022-08-01T14:40:09;4.20;;;3.20;;
56581;SDS011;42463;52.214;21.238;2022-08-01T14:42:32;5.20;;;3.40;;
56581;SDS011;42463;52.214;21.238;2022-08-01T14:44:56;5.30;;;3.10;;
56581;SDS011;42463;52.214;21.238;2022-08-01T14:47:21;4.80;;;3.80;;
56581;SDS011;42463;52.214;21.238;2022-08-01T14:49:44;3.60;;;3.30;;
56581;SDS011;42463;52.214;21.238;2022-08-01T14:52:06;4.80;;;3.40;;
56581;SDS011;42463;52.214;21.238;2022-08-01T14:54:29;3.70;;;3.30;;